sensor_id;sensor_type;location;lat;lon;timestamp;temperature;humidity
31661;DHT22;18267;52.234;7.444;2022-12-18T00:01:04;-2.40;99.90
31661;DHT22;18267;52.234;7.444;2022-12-18T00:03:34;-2.30;99.90
31661;DHT22;18267;52.234;7.444;2022-12-18T00:06:00;-2.30;99.90
31661;DHT22;18267;52.234;7.444;2022-12-18T00:08:26;-2.30;99.90
31661;DHT22;18267;52.234;7.444;2022-12-18T00:10:51;-2.40;99.90
31661;DHT22;18267;52.234;7.444;2022-12-18T00:13:17;-2.50;99.90
31661;DHT22;18267;52.234;7.444;2022-12-18T00:15:42;-2.50;99.90
31661;DHT22;18267;52.234;7.444;2022-12-18T00:18:09;-2.50;99.90
31661;DHT22;18267;52.234;7.444;2022-12-18T00:20:39;-2.40;99.90
31661;DHT22;18267;52.234;7.444;2022-12-18T00:23:06;-2.50;99.90
31661;DHT22;18267;52.234;7.444;2022-12-18T00:25:35;-2.50;99.90
31661;DHT22;18267;52.234;7.444;2022-12-18T00:28:02;-2.50;99.90
31661;DHT22;18267;52.234;7.444;2022-12-18T00:30:28;-2.50;99.90
31661;DHT22;18267;52.234;7.444;2022-12-18T00:32:53;-2.50;99.90
31661;DHT22;18267;52.234;7.444;2022-12-18T00:35:19;-2.50;99.90
31661;DHT22;18267;52.234;7.444;2022-12-18T00:37:45;-2.60;99.90
31661;DHT22;18267;52.234;7.444;2022-12-18T00:40:11;-2.90;99.90
31661;DHT22;18267;52.234;7.444;2022-12-18T00:42:36;-2.90;99.90
31661;DHT22;18267;52.234;7.444;2022-12-18T00:45:25;-2.90;99.90
31661;DHT22;18267;52.234;7.444;2022-12-18T00:47:50;-3.10;99.90
31661;DHT22;18267;52.234;7.444;2022-12-18T00:50:16;-3.00;99.90
31661;DHT22;18267;52.234;7.444;2022-12-18T00:52:42;-3.10;99.90
31661;DHT22;18267;52.234;7.444;2022-12-18T00:55:08;-3.10;99.90
31661;DHT22;18267;52.234;7.444;2022-12-18T00:57:34;-3.20;99.90
31661;DHT22;18267;52.234;7.444;2022-12-18T00:59:59;-3.10;99.90
31661;DHT22;18267;52.234;7.444;2022-12-18T01:02:25;-3.10;99.90
31661;DHT22;18267;52.234;7.444;2022-12-18T01:04:50;-3.10;99.90
31661;DHT22;18267;52.234;7.444;2022-12-18T01:07:16;-3.10;99.90
31661;DHT22;18267;52.234;7.444;2022-12-18T01:09:41;-3.10;99.90
31661;DHT22;18267;52.234;7.444;2022-12-18T01:12:07;-3.00;99.90
31661;DHT22;18267;52.234;7.444;2022-12-18T01:14:32;-3.10;99.90
31661;DHT22;18267;52.234;7.444;2022-12-18T01:16:58;-3.10;99.90
31661;DHT22;18267;52.234;7.444;2022-12-18T01:19:23;-3.10;99.90
31661;DHT22;18267;52.234;7.444;2022-12-18T01:21:49;-3.10;99.90
31661;DHT22;18267;52.234;7.444;2022-12-18T01:24:15;-3.20;99.90
31661;DHT22;18267;52.234;7.444;2022-12-18T01:26:41;-3.20;99.90
31661;DHT22;18267;52.234;7.444;2022-12-18T01:29:06;-3.30;99.90
31661;DHT22;18267;52.234;7.444;2022-12-18T01:31:33;-3.30;99.90
31661;DHT22;18267;52.234;7.444;2022-12-18T01:34:01;-3.30;99.90
31661;DHT22;18267;52.234;7.444;2022-12-18T01:36:32;-3.20;99.90
31661;DHT22;18267;52.234;7.444;2022-12-18T01:39:07;-3.20;99.90
31661;DHT22;18267;52.234;7.444;2022-12-18T01:41:33;-3.20;99.90
31661;DHT22;18267;52.234;7.444;2022-12-18T01:47:41;-3.30;99.90
31661;DHT22;18267;52.234;7.444;2022-12-18T01:50:10;-3.30;99.90
31661;DHT22;18267;52.234;7.444;2022-12-18T01:52:41;-3.40;99.90
31661;DHT22;18267;52.234;7.444;2022-12-18T01:55:08;-3.40;99.90
31661;DHT22;18267;52.234;7.444;2022-12-18T01:57:34;-3.30;99.90
31661;DHT22;18267;52.234;7.444;2022-12-18T02:00:05;-3.50;99.90
31661;DHT22;18267;52.234;7.444;2022-12-18T02:02:31;-3.30;99.90
31661;DHT22;18267;52.234;7.444;2022-12-18T02:04:57;-3.20;99.90
31661;DHT22;18267;52.234;7.444;2022-12-18T02:12:52;-3.40;99.90
31661;DHT22;18267;52.234;7.444;2022-12-18T02:15:36;-3.30;99.90
31661;DHT22;18267;52.234;7.444;2022-12-18T02:18:23;-3.40;99.90
31661;DHT22;18267;52.234;7.444;2022-12-18T02:24:12;-3.60;99.90
31661;DHT22;18267;52.234;7.444;2022-12-18T02:26:38;-3.70;99.90
31661;DHT22;18267;52.234;7.444;2022-12-18T02:29:15;-3.70;99.90
31661;DHT22;18267;52.234;7.444;2022-12-18T02:31:57;-3.50;99.90
31661;DHT22;18267;52.234;7.444;2022-12-18T02:34:27;-3.60;99.90
31661;DHT22;18267;52.234;7.444;2022-12-18T02:36:54;-3.70;99.90
31661;DHT22;18267;52.234;7.444;2022-12-18T02:39:23;-3.80;99.90
31661;DHT22;18267;52.234;7.444;2022-12-18T02:41:50;-3.80;99.90
31661;DHT22;18267;52.234;7.444;2022-12-18T02:44:16;-3.80;99.90
31661;DHT22;18267;52.234;7.444;2022-12-18T02:47:00;-3.70;99.90
31661;DHT22;18267;52.234;7.444;2022-12-18T02:57:34;-3.80;99.90
31661;DHT22;18267;52.234;7.444;2022-12-18T03:00:08;-3.90;99.90
31661;DHT22;18267;52.234;7.444;2022-12-18T03:02:47;-4.00;99.90
31661;DHT22;18267;52.234;7.444;2022-12-18T03:05:21;-3.80;99.90
31661;DHT22;18267;52.234;7.444;2022-12-18T03:07:57;-3.90;99.90
31661;DHT22;18267;52.234;7.444;2022-12-18T03:10:27;-4.00;99.90
31661;DHT22;18267;52.234;7.444;2022-12-18T03:13:03;-4.00;99.90
31661;DHT22;18267;52.234;7.444;2022-12-18T03:15:34;-4.00;99.90
31661;DHT22;18267;52.234;7.444;2022-12-18T03:18:25;-4.00;99.90
31661;DHT22;18267;52.234;7.444;2022-12-18T03:20:56;-4.00;99.90
31661;DHT22;18267;52.234;7.444;2022-12-18T03:23:28;-4.00;99.90
31661;DHT22;18267;52.234;7.444;2022-12-18T03:25:58;-3.90;99.90
31661;DHT22;18267;52.234;7.444;2022-12-18T03:28:27;-3.90;99.90
31661;DHT22;18267;52.234;7.444;2022-12-18T03:30:56;-3.90;99.90
31661;DHT22;18267;52.234;7.444;2022-12-18T03:33:31;-3.90;99.90
31661;DHT22;18267;52.234;7.444;2022-12-18T03:36:00;-3.90;99.90
31661;DHT22;18267;52.234;7.444;2022-12-18T03:38:26;-3.90;99.90
31661;DHT22;18267;52.234;7.444;2022-12-18T03:43:59;-4.10;99.90
31661;DHT22;18267;52.234;7.444;2022-12-18T03:46:48;-4.30;99.90
31661;DHT22;18267;52.234;7.444;2022-12-18T03:49:25;-4.30;99.90
31661;DHT22;18267;52.234;7.444;2022-12-18T03:52:04;-4.30;99.90
31661;DHT22;18267;52.234;7.444;2022-12-18T03:54:32;-4.30;99.90
31661;DHT22;18267;52.234;7.444;2022-12-18T03:57:04;-4.20;99.90
31661;DHT22;18267;52.234;7.444;2022-12-18T03:59:31;-4.20;99.90
31661;DHT22;18267;52.234;7.444;2022-12-18T04:01:58;-4.30;99.90
31661;DHT22;18267;52.234;7.444;2022-12-18T04:04:25;-4.30;99.90
31661;DHT22;18267;52.234;7.444;2022-12-18T04:06:52;-4.10;99.90
31661;DHT22;18267;52.234;7.444;2022-12-18T04:09:19;-4.20;99.90
31661;DHT22;18267;52.234;7.444;2022-12-18T04:11:46;-4.10;99.90
31661;DHT22;18267;52.234;7.444;2022-12-18T04:14:12;-4.10;99.90
31661;DHT22;18267;52.234;7.444;2022-12-18T04:16:38;-4.00;99.90
31661;DHT22;18267;52.234;7.444;2022-12-18T04:19:04;-4.00;99.90
31661;DHT22;18267;52.234;7.444;2022-12-18T04:21:30;-4.00;99.90
31661;DHT22;18267;52.234;7.444;2022-12-18T04:23:55;-3.90;99.90
31661;DHT22;18267;52.234;7.444;2022-12-18T04:26:21;-4.10;99.90
31661;DHT22;18267;52.234;7.444;2022-12-18T04:28:46;-4.10;99.90
31661;DHT22;18267;52.234;7.444;2022-12-18T04:31:12;-4.10;99.90
31661;DHT22;18267;52.234;7.444;2022-12-18T04:33:38;-4.10;99.90
31661;DHT22;18267;52.234;7.444;2022-12-18T04:36:04;-4.10;99.90
31661;DHT22;18267;52.234;7.444;2022-12-18T04:38:29;-4.10;99.90
31661;DHT22;18267;52.234;7.444;2022-12-18T04:40:55;-4.10;99.90
31661;DHT22;18267;52.234;7.444;2022-12-18T04:43:20;-4.10;99.90
31661;DHT22;18267;52.234;7.444;2022-12-18T04:45:46;-4.00;99.90
31661;DHT22;18267;52.234;7.444;2022-12-18T04:48:11;-4.00;99.90
31661;DHT22;18267;52.234;7.444;2022-12-18T04:50:37;-4.00;99.90
31661;DHT22;18267;52.234;7.444;2022-12-18T04:53:02;-4.00;99.90
31661;DHT22;18267;52.234;7.444;2022-12-18T04:55:28;-4.00;99.90
31661;DHT22;18267;52.234;7.444;2022-12-18T04:57:54;-4.00;99.90
31661;DHT22;18267;52.234;7.444;2022-12-18T05:00:19;-4.10;99.90
31661;DHT22;18267;52.234;7.444;2022-12-18T05:02:45;-4.10;99.90
31661;DHT22;18267;52.234;7.444;2022-12-18T05:05:10;-4.10;99.90
31661;DHT22;18267;52.234;7.444;2022-12-18T05:07:36;-4.20;99.90
31661;DHT22;18267;52.234;7.444;2022-12-18T05:10:03;-4.20;99.90
31661;DHT22;18267;52.234;7.444;2022-12-18T05:12:28;-4.10;99.90
31661;DHT22;18267;52.234;7.444;2022-12-18T05:14:54;-4.10;99.90
31661;DHT22;18267;52.234;7.444;2022-12-18T05:17:19;-4.10;99.90
31661;DHT22;18267;52.234;7.444;2022-12-18T05:19:45;-4.20;99.90
31661;DHT22;18267;52.234;7.444;2022-12-18T05:22:10;-4.20;99.90
31661;DHT22;18267;52.234;7.444;2022-12-18T05:24:36;-4.20;99.90
31661;DHT22;18267;52.234;7.444;2022-12-18T05:27:02;-4.20;99.90
31661;DHT22;18267;52.234;7.444;2022-12-18T05:29:27;-4.00;99.90
31661;DHT22;18267;52.234;7.444;2022-12-18T05:31:53;-4.20;99.90
31661;DHT22;18267;52.234;7.444;2022-12-18T05:34:18;-4.20;99.90
31661;DHT22;18267;52.234;7.444;2022-12-18T05:36:44;-4.10;99.90
31661;DHT22;18267;52.234;7.444;2022-12-18T05:39:10;-4.20;99.90
31661;DHT22;18267;52.234;7.444;2022-12-18T05:41:35;-4.20;99.90
31661;DHT22;18267;52.234;7.444;2022-12-18T05:44:01;-4.30;99.90
31661;DHT22;18267;52.234;7.444;2022-12-18T05:46:27;-4.20;99.90
31661;DHT22;18267;52.234;7.444;2022-12-18T05:48:52;-4.30;99.90
31661;DHT22;18267;52.234;7.444;2022-12-18T05:51:20;-4.20;99.90
31661;DHT22;18267;52.234;7.444;2022-12-18T05:53:46;-4.10;99.90
31661;DHT22;18267;52.234;7.444;2022-12-18T05:56:14;-4.20;99.90
31661;DHT22;18267;52.234;7.444;2022-12-18T05:58:41;-4.20;99.90
31661;DHT22;18267;52.234;7.444;2022-12-18T06:01:13;-4.20;99.90
31661;DHT22;18267;52.234;7.444;2022-12-18T06:03:38;-4.20;99.90
31661;DHT22;18267;52.234;7.444;2022-12-18T06:06:11;-4.30;99.90
31661;DHT22;18267;52.234;7.444;2022-12-18T06:08:37;-4.30;99.90
31661;DHT22;18267;52.234;7.444;2022-12-18T06:11:03;-4.30;99.90
31661;DHT22;18267;52.234;7.444;2022-12-18T06:13:28;-4.30;99.90
31661;DHT22;18267;52.234;7.444;2022-12-18T06:15:54;-4.20;99.90
31661;DHT22;18267;52.234;7.444;2022-12-18T06:18:19;-4.30;99.90
31661;DHT22;18267;52.234;7.444;2022-12-18T06:20:45;-4.30;99.90
31661;DHT22;18267;52.234;7.444;2022-12-18T06:23:10;-4.30;99.90
31661;DHT22;18267;52.234;7.444;2022-12-18T06:25:38;-4.30;99.90
31661;DHT22;18267;52.234;7.444;2022-12-18T06:28:03;-4.20;99.90
31661;DHT22;18267;52.234;7.444;2022-12-18T06:30:29;-4.30;99.90
31661;DHT22;18267;52.234;7.444;2022-12-18T06:32:54;-4.30;99.90
31661;DHT22;18267;52.234;7.444;2022-12-18T06:35:20;-4.30;99.90
31661;DHT22;18267;52.234;7.444;2022-12-18T06:37:45;-4.40;99.90
31661;DHT22;18267;52.234;7.444;2022-12-18T06:40:11;-4.30;99.90
31661;DHT22;18267;52.234;7.444;2022-12-18T06:42:37;-4.40;99.90
31661;DHT22;18267;52.234;7.444;2022-12-18T06:45:03;-4.40;99.90
31661;DHT22;18267;52.234;7.444;2022-12-18T06:47:28;-4.50;99.90
31661;DHT22;18267;52.234;7.444;2022-12-18T06:49:54;-4.40;99.90
31661;DHT22;18267;52.234;7.444;2022-12-18T06:52:19;-4.40;99.90
31661;DHT22;18267;52.234;7.444;2022-12-18T06:54:45;-4.30;99.90
31661;DHT22;18267;52.234;7.444;2022-12-18T06:57:10;-4.20;99.90
31661;DHT22;18267;52.234;7.444;2022-12-18T06:59:36;-4.40;99.90
31661;DHT22;18267;52.234;7.444;2022-12-18T07:02:01;-4.40;99.90
31661;DHT22;18267;52.234;7.444;2022-12-18T07:04:29;-4.40;99.90
31661;DHT22;18267;52.234;7.444;2022-12-18T07:06:54;-4.40;99.90
31661;DHT22;18267;52.234;7.444;2022-12-18T07:09:20;-4.30;99.90
31661;DHT22;18267;52.234;7.444;2022-12-18T07:11:45;-4.30;99.90
31661;DHT22;18267;52.234;7.444;2022-12-18T07:14:11;-4.20;99.90
31661;DHT22;18267;52.234;7.444;2022-12-18T07:16:37;-4.20;99.90
31661;DHT22;18267;52.234;7.444;2022-12-18T07:19:02;-4.20;99.90
31661;DHT22;18267;52.234;7.444;2022-12-18T07:21:28;-4.20;99.90
31661;DHT22;18267;52.234;7.444;2022-12-18T07:23:53;-4.30;99.90
31661;DHT22;18267;52.234;7.444;2022-12-18T07:26:20;-4.40;99.90
31661;DHT22;18267;52.234;7.444;2022-12-18T07:28:46;-4.30;99.90
31661;DHT22;18267;52.234;7.444;2022-12-18T07:31:15;-4.30;99.90
31661;DHT22;18267;52.234;7.444;2022-12-18T07:33:41;-4.20;99.90
31661;DHT22;18267;52.234;7.444;2022-12-18T07:36:07;-4.20;99.90
31661;DHT22;18267;52.234;7.444;2022-12-18T07:38:35;-4.30;99.90
31661;DHT22;18267;52.234;7.444;2022-12-18T07:41:12;-4.40;99.90
31661;DHT22;18267;52.234;7.444;2022-12-18T07:43:38;-4.40;99.90
31661;DHT22;18267;52.234;7.444;2022-12-18T07:46:04;-4.40;99.90
31661;DHT22;18267;52.234;7.444;2022-12-18T07:48:30;-4.30;99.90
31661;DHT22;18267;52.234;7.444;2022-12-18T07:51:04;-4.30;99.90
31661;DHT22;18267;52.234;7.444;2022-12-18T07:53:30;-4.20;99.90
31661;DHT22;18267;52.234;7.444;2022-12-18T07:56:00;-4.20;99.90
31661;DHT22;18267;52.234;7.444;2022-12-18T07:58:27;-4.20;99.90
31661;DHT22;18267;52.234;7.444;2022-12-18T08:00:53;-4.20;99.90
31661;DHT22;18267;52.234;7.444;2022-12-18T08:03:19;-4.20;99.90
31661;DHT22;18267;52.234;7.444;2022-12-18T08:05:44;-4.30;99.90
31661;DHT22;18267;52.234;7.444;2022-12-18T08:08:10;-4.30;99.90
31661;DHT22;18267;52.234;7.444;2022-12-18T08:10:37;-4.20;99.90
31661;DHT22;18267;52.234;7.444;2022-12-18T08:13:02;-4.10;99.90
31661;DHT22;18267;52.234;7.444;2022-12-18T08:15:28;-4.10;99.90
31661;DHT22;18267;52.234;7.444;2022-12-18T08:17:56;-4.00;99.90
31661;DHT22;18267;52.234;7.444;2022-12-18T08:20:22;-3.90;99.90
31661;DHT22;18267;52.234;7.444;2022-12-18T08:22:47;-3.80;99.90
31661;DHT22;18267;52.234;7.444;2022-12-18T08:25:13;-3.80;99.90
31661;DHT22;18267;52.234;7.444;2022-12-18T08:27:39;-3.80;99.90
31661;DHT22;18267;52.234;7.444;2022-12-18T08:30:05;-3.80;99.90
31661;DHT22;18267;52.234;7.444;2022-12-18T08:32:31;-3.60;99.90
31661;DHT22;18267;52.234;7.444;2022-12-18T08:34:58;-3.50;99.90
31661;DHT22;18267;52.234;7.444;2022-12-18T08:37:23;-3.40;99.90
31661;DHT22;18267;52.234;7.444;2022-12-18T08:39:49;-3.50;99.90
31661;DHT22;18267;52.234;7.444;2022-12-18T08:42:15;-3.40;99.90
31661;DHT22;18267;52.234;7.444;2022-12-18T08:44:59;-3.40;99.90
31661;DHT22;18267;52.234;7.444;2022-12-18T08:47:24;-3.40;99.90
31661;DHT22;18267;52.234;7.444;2022-12-18T08:49:51;-3.40;99.90
31661;DHT22;18267;52.234;7.444;2022-12-18T08:52:16;-3.20;99.90
31661;DHT22;18267;52.234;7.444;2022-12-18T08:54:42;-3.00;99.90
31661;DHT22;18267;52.234;7.444;2022-12-18T08:57:08;-2.90;99.90
31661;DHT22;18267;52.234;7.444;2022-12-18T08:59:33;-2.80;99.90
31661;DHT22;18267;52.234;7.444;2022-12-18T09:01:59;-2.80;99.90
31661;DHT22;18267;52.234;7.444;2022-12-18T09:04:25;-2.70;99.90
31661;DHT22;18267;52.234;7.444;2022-12-18T09:06:50;-2.70;99.90
31661;DHT22;18267;52.234;7.444;2022-12-18T09:09:16;-2.80;99.90
31661;DHT22;18267;52.234;7.444;2022-12-18T09:11:41;-2.70;99.90
31661;DHT22;18267;52.234;7.444;2022-12-18T09:14:08;-2.70;99.90
31661;DHT22;18267;52.234;7.444;2022-12-18T09:16:34;-2.60;99.90
31661;DHT22;18267;52.234;7.444;2022-12-18T09:19:01;-2.60;99.90
31661;DHT22;18267;52.234;7.444;2022-12-18T09:21:32;-2.60;99.90
31661;DHT22;18267;52.234;7.444;2022-12-18T09:23:58;-2.60;99.90
31661;DHT22;18267;52.234;7.444;2022-12-18T09:26:25;-2.50;99.90
31661;DHT22;18267;52.234;7.444;2022-12-18T09:28:51;-2.30;99.90
31661;DHT22;18267;52.234;7.444;2022-12-18T09:31:18;-2.20;99.90
31661;DHT22;18267;52.234;7.444;2022-12-18T09:33:44;-2.20;99.90
31661;DHT22;18267;52.234;7.444;2022-12-18T09:36:16;-2.30;99.90
31661;DHT22;18267;52.234;7.444;2022-12-18T09:38:43;-2.30;99.90
31661;DHT22;18267;52.234;7.444;2022-12-18T09:46:47;-2.10;99.90
31661;DHT22;18267;52.234;7.444;2022-12-18T09:49:19;-2.00;99.90
31661;DHT22;18267;52.234;7.444;2022-12-18T09:51:55;-1.90;99.90
31661;DHT22;18267;52.234;7.444;2022-12-18T09:54:26;-2.00;99.90
31661;DHT22;18267;52.234;7.444;2022-12-18T09:56:53;-1.90;99.90
31661;DHT22;18267;52.234;7.444;2022-12-18T09:59:36;-1.80;99.90
31661;DHT22;18267;52.234;7.444;2022-12-18T10:02:20;-1.80;99.90
31661;DHT22;18267;52.234;7.444;2022-12-18T10:05:15;-1.80;99.90
31661;DHT22;18267;52.234;7.444;2022-12-18T10:10:38;-1.70;99.90
31661;DHT22;18267;52.234;7.444;2022-12-18T10:21:12;-1.60;99.90
31661;DHT22;18267;52.234;7.444;2022-12-18T10:23:55;-1.60;99.90
31661;DHT22;18267;52.234;7.444;2022-12-18T10:26:25;-1.50;99.90
31661;DHT22;18267;52.234;7.444;2022-12-18T10:28:51;-1.50;99.90
31661;DHT22;18267;52.234;7.444;2022-12-18T10:31:20;-1.50;99.90
31661;DHT22;18267;52.234;7.444;2022-12-18T10:33:46;-1.50;99.90
31661;DHT22;18267;52.234;7.444;2022-12-18T10:36:12;-1.50;99.90
31661;DHT22;18267;52.234;7.444;2022-12-18T10:38:37;-1.50;99.90
31661;DHT22;18267;52.234;7.444;2022-12-18T10:41:06;-1.50;99.90
31661;DHT22;18267;52.234;7.444;2022-12-18T10:43:36;-1.40;99.90
31661;DHT22;18267;52.234;7.444;2022-12-18T10:48:57;-1.40;99.90
31661;DHT22;18267;52.234;7.444;2022-12-18T10:51:34;-1.20;99.90
31661;DHT22;18267;52.234;7.444;2022-12-18T10:54:18;-1.00;99.90
31661;DHT22;18267;52.234;7.444;2022-12-18T10:56:46;-0.90;99.90
31661;DHT22;18267;52.234;7.444;2022-12-18T10:59:14;-1.00;99.90
31661;DHT22;18267;52.234;7.444;2022-12-18T11:01:55;-1.00;99.90
31661;DHT22;18267;52.234;7.444;2022-12-18T11:04:29;-1.00;99.90
31661;DHT22;18267;52.234;7.444;2022-12-18T11:07:04;-0.90;99.90
31661;DHT22;18267;52.234;7.444;2022-12-18T11:09:32;-0.80;99.90
31661;DHT22;18267;52.234;7.444;2022-12-18T11:12:16;-0.70;99.90
31661;DHT22;18267;52.234;7.444;2022-12-18T11:14:48;-0.70;99.90
31661;DHT22;18267;52.234;7.444;2022-12-18T11:17:22;-0.60;99.90
31661;DHT22;18267;52.234;7.444;2022-12-18T11:19:55;-0.60;99.90
31661;DHT22;18267;52.234;7.444;2022-12-18T11:22:26;-0.60;99.90
31661;DHT22;18267;52.234;7.444;2022-12-18T11:25:00;-0.40;99.90
31661;DHT22;18267;52.234;7.444;2022-12-18T11:27:27;-0.40;99.90
31661;DHT22;18267;52.234;7.444;2022-12-18T11:30:06;-0.40;99.90
31661;DHT22;18267;52.234;7.444;2022-12-18T11:32:40;-0.30;99.90
31661;DHT22;18267;52.234;7.444;2022-12-18T11:35:27;-0.30;99.90
31661;DHT22;18267;52.234;7.444;2022-12-18T11:38:04;-0.40;99.90
31661;DHT22;18267;52.234;7.444;2022-12-18T11:40:36;-0.40;99.90
31661;DHT22;18267;52.234;7.444;2022-12-18T11:43:15;-0.30;99.90
31661;DHT22;18267;52.234;7.444;2022-12-18T11:46:04;-0.20;99.90
31661;DHT22;18267;52.234;7.444;2022-12-18T11:48:48;-0.10;99.90
31661;DHT22;18267;52.234;7.444;2022-12-18T11:51:22;-0.10;99.90
31661;DHT22;18267;52.234;7.444;2022-12-18T11:53:51;-0.20;99.90
31661;DHT22;18267;52.234;7.444;2022-12-18T11:56:32;-0.20;99.90
31661;DHT22;18267;52.234;7.444;2022-12-18T12:05:02;-0.10;99.90
31661;DHT22;18267;52.234;7.444;2022-12-18T12:07:46;-0.10;99.90
31661;DHT22;18267;52.234;7.444;2022-12-18T12:10:41;0.00;99.90
31661;DHT22;18267;52.234;7.444;2022-12-18T12:13:28;0.10;99.90
31661;DHT22;18267;52.234;7.444;2022-12-18T12:22:22;0.20;99.90
31661;DHT22;18267;52.234;7.444;2022-12-18T12:27:45;0.10;99.90
31661;DHT22;18267;52.234;7.444;2022-12-18T12:30:18;0.10;99.90
31661;DHT22;18267;52.234;7.444;2022-12-18T12:35:54;0.20;99.90
31661;DHT22;18267;52.234;7.444;2022-12-18T12:38:27;0.30;99.90
31661;DHT22;18267;52.234;7.444;2022-12-18T12:41:04;0.20;99.90
31661;DHT22;18267;52.234;7.444;2022-12-18T12:43:45;0.30;99.90
31661;DHT22;18267;52.234;7.444;2022-12-18T12:46:15;0.30;99.90
31661;DHT22;18267;52.234;7.444;2022-12-18T12:49:33;0.30;99.90
31661;DHT22;18267;52.234;7.444;2022-12-18T12:51:40;0.30;99.90
31661;DHT22;18267;52.234;7.444;2022-12-18T12:54:14;0.20;99.90
31661;DHT22;18267;52.234;7.444;2022-12-18T13:02:22;0.30;99.90
31661;DHT22;18267;52.234;7.444;2022-12-18T13:17:49;0.40;99.90
31661;DHT22;18267;52.234;7.444;2022-12-18T13:20:40;0.30;99.90
31661;DHT22;18267;52.234;7.444;2022-12-18T13:25:56;0.40;99.90
31661;DHT22;18267;52.234;7.444;2022-12-18T13:31:11;0.30;99.90
31661;DHT22;18267;52.234;7.444;2022-12-18T13:33:41;0.30;99.90
31661;DHT22;18267;52.234;7.444;2022-12-18T13:41:43;0.20;99.90
31661;DHT22;18267;52.234;7.444;2022-12-18T13:46:57;0.20;99.90
31661;DHT22;18267;52.234;7.444;2022-12-18T13:49:26;0.20;99.90
31661;DHT22;18267;52.234;7.444;2022-12-18T13:51:55;0.20;99.90
31661;DHT22;18267;52.234;7.444;2022-12-18T13:54:39;0.20;99.90
31661;DHT22;18267;52.234;7.444;2022-12-18T13:59:53;0.10;99.90
31661;DHT22;18267;52.234;7.444;2022-12-18T14:02:28;0.10;99.90
31661;DHT22;18267;52.234;7.444;2022-12-18T14:04:54;0.10;99.90
31661;DHT22;18267;52.234;7.444;2022-12-18T14:07:25;0.20;99.90
31661;DHT22;18267;52.234;7.444;2022-12-18T14:09:56;0.20;99.90
31661;DHT22;18267;52.234;7.444;2022-12-18T14:12:32;0.30;99.90
31661;DHT22;18267;52.234;7.444;2022-12-18T14:17:54;0.20;99.90
31661;DHT22;18267;52.234;7.444;2022-12-18T14:20:21;0.20;99.90
31661;DHT22;18267;52.234;7.444;2022-12-18T14:22:48;0.20;99.90
31661;DHT22;18267;52.234;7.444;2022-12-18T14:25:19;0.10;99.90
31661;DHT22;18267;52.234;7.444;2022-12-18T14:27:49;0.10;99.90
31661;DHT22;18267;52.234;7.444;2022-12-18T14:35:39;0.20;99.90
31661;DHT22;18267;52.234;7.444;2022-12-18T14:40:45;0.20;99.90
31661;DHT22;18267;52.234;7.444;2022-12-18T14:43:11;0.30;99.90
31661;DHT22;18267;52.234;7.444;2022-12-18T14:45:44;0.20;99.90
31661;DHT22;18267;52.234;7.444;2022-12-18T14:48:24;0.20;99.90
31661;DHT22;18267;52.234;7.444;2022-12-18T14:51:18;0.20;99.90
31661;DHT22;18267;52.234;7.444;2022-12-18T14:53:53;0.20;99.90
31661;DHT22;18267;52.234;7.444;2022-12-18T14:56:25;0.30;99.90
31661;DHT22;18267;52.234;7.444;2022-12-18T15:01:27;0.30;99.90
31661;DHT22;18267;52.234;7.444;2022-12-18T15:03:54;0.30;99.90
31661;DHT22;18267;52.234;7.444;2022-12-18T15:06:27;0.30;99.90
31661;DHT22;18267;52.234;7.444;2022-12-18T15:08:53;0.30;99.90
31661;DHT22;18267;52.234;7.444;2022-12-18T15:13:51;0.40;99.90
31661;DHT22;18267;52.234;7.444;2022-12-18T15:16:17;0.40;99.90
31661;DHT22;18267;52.234;7.444;2022-12-18T15:18:43;0.40;99.90
31661;DHT22;18267;52.234;7.444;2022-12-18T15:21:14;0.40;99.90
31661;DHT22;18267;52.234;7.444;2022-12-18T15:26:12;0.40;99.90
31661;DHT22;18267;52.234;7.444;2022-12-18T15:33:47;0.40;99.90
31661;DHT22;18267;52.234;7.444;2022-12-18T15:36:28;0.40;99.90
31661;DHT22;18267;52.234;7.444;2022-12-18T15:38:56;0.40;99.90
31661;DHT22;18267;52.234;7.444;2022-12-18T15:41:23;0.40;99.90
31661;DHT22;18267;52.234;7.444;2022-12-18T15:43:50;0.40;99.90
31661;DHT22;18267;52.234;7.444;2022-12-18T15:46:22;0.40;99.90
31661;DHT22;18267;52.234;7.444;2022-12-18T15:48:49;0.40;99.90
31661;DHT22;18267;52.234;7.444;2022-12-18T15:51:21;0.40;99.90
31661;DHT22;18267;52.234;7.444;2022-12-18T15:53:49;0.40;99.90
31661;DHT22;18267;52.234;7.444;2022-12-18T15:56:16;0.40;99.90
31661;DHT22;18267;52.234;7.444;2022-12-18T15:59:01;0.50;99.90
31661;DHT22;18267;52.234;7.444;2022-12-18T16:01:29;0.50;99.90
31661;DHT22;18267;52.234;7.444;2022-12-18T16:03:55;0.50;99.90
31661;DHT22;18267;52.234;7.444;2022-12-18T16:06:21;0.60;99.90
31661;DHT22;18267;52.234;7.444;2022-12-18T16:08:47;0.60;99.90
31661;DHT22;18267;52.234;7.444;2022-12-18T16:11:26;0.40;99.90
31661;DHT22;18267;52.234;7.444;2022-12-18T16:14:26;0.50;99.90
31661;DHT22;18267;52.234;7.444;2022-12-18T16:16:57;0.60;99.90
31661;DHT22;18267;52.234;7.444;2022-12-18T16:19:23;0.70;99.90
31661;DHT22;18267;52.234;7.444;2022-12-18T16:21:51;0.70;99.90
31661;DHT22;18267;52.234;7.444;2022-12-18T16:24:22;0.70;99.90
31661;DHT22;18267;52.234;7.444;2022-12-18T16:26:48;0.80;99.90
31661;DHT22;18267;52.234;7.444;2022-12-18T16:29:15;0.80;99.90
31661;DHT22;18267;52.234;7.444;2022-12-18T16:31:41;0.70;99.90
31661;DHT22;18267;52.234;7.444;2022-12-18T16:34:33;0.70;99.90
31661;DHT22;18267;52.234;7.444;2022-12-18T16:37:01;0.70;99.90
31661;DHT22;18267;52.234;7.444;2022-12-18T16:39:28;0.60;99.90
31661;DHT22;18267;52.234;7.444;2022-12-18T16:41:53;0.50;99.90
31661;DHT22;18267;52.234;7.444;2022-12-18T16:44:20;0.60;99.90
31661;DHT22;18267;52.234;7.444;2022-12-18T16:46:46;0.60;99.90
31661;DHT22;18267;52.234;7.444;2022-12-18T16:49:16;0.60;99.90
31661;DHT22;18267;52.234;7.444;2022-12-18T16:51:42;0.70;99.90
31661;DHT22;18267;52.234;7.444;2022-12-18T16:54:08;0.70;99.90
31661;DHT22;18267;52.234;7.444;2022-12-18T16:56:34;0.60;99.90
31661;DHT22;18267;52.234;7.444;2022-12-18T16:59:01;0.70;99.90
31661;DHT22;18267;52.234;7.444;2022-12-18T17:01:29;0.70;99.90
31661;DHT22;18267;52.234;7.444;2022-12-18T17:03:59;0.60;99.90
31661;DHT22;18267;52.234;7.444;2022-12-18T17:06:28;0.60;99.90
31661;DHT22;18267;52.234;7.444;2022-12-18T17:08:58;0.60;99.90
31661;DHT22;18267;52.234;7.444;2022-12-18T17:11:25;0.60;99.90
31661;DHT22;18267;52.234;7.444;2022-12-18T17:13:51;0.60;99.90
31661;DHT22;18267;52.234;7.444;2022-12-18T17:16:17;0.60;99.90
31661;DHT22;18267;52.234;7.444;2022-12-18T17:18:42;0.60;99.90
31661;DHT22;18267;52.234;7.444;2022-12-18T17:21:08;0.60;99.90
31661;DHT22;18267;52.234;7.444;2022-12-18T17:23:34;0.60;99.90
31661;DHT22;18267;52.234;7.444;2022-12-18T17:26:02;0.70;99.90
31661;DHT22;18267;52.234;7.444;2022-12-18T17:28:28;0.70;99.90
31661;DHT22;18267;52.234;7.444;2022-12-18T17:30:55;0.60;99.90
31661;DHT22;18267;52.234;7.444;2022-12-18T17:33:22;0.60;99.90
31661;DHT22;18267;52.234;7.444;2022-12-18T17:35:48;0.60;99.90
31661;DHT22;18267;52.234;7.444;2022-12-18T17:38:13;0.60;99.90
31661;DHT22;18267;52.234;7.444;2022-12-18T17:40:39;0.70;99.90
31661;DHT22;18267;52.234;7.444;2022-12-18T17:43:06;0.60;99.90
31661;DHT22;18267;52.234;7.444;2022-12-18T17:45:37;0.60;99.90
31661;DHT22;18267;52.234;7.444;2022-12-18T17:48:04;0.60;99.90